Lyoth, California
Current Conditions -  °F | °C
As of 8:55 PM on Saturday 20 Dec 2014 (Local Time) from KSCK Reporting Station
Haze Haze  
Wind Chill: 56°   Ceiling: 4600
Heat Index: 56°   Visibility: 6mi
Dew Point: 53°   Wind: 5mph
Humidity: 90%   Direction: 110°ESE
Pressure: 30.24"   Gusts: NA
Location:  38.03°N, 121.3°W
Report Text: KSCK 210455Z AUTO 11004KT 6SM BR OVC046 13/12 A3024 RMK AO2 SLP240 T01330117
Loading
Personal Weather Stations






























Interactive Weather Map New forecast layout! Learn more

10-Day Weather Forecast

Advertisements
Track Severe Weather on mobile